Airfield :
LOGIN :

Register | Disclaimer

   EN    FR    IT 

 










Legend :    VFR   Marginal VFR   IFR   Intensive IFR   Very Intensive IFR
Visi :
Ceiling :
>= 8 km
>= 3000ft
5 to 8 km
1000 to 3000 ft
1500m to 5 km
500 to 1000 ft
800 to 1500m
200 to 500 ft
< 800m
< 200 ft
Symbols :   Thunderstorms  Fog  Heavy snow  Heavy precipitations  Wind > 20 kt
SIGMETs :     Misc.  Thunderstorms  Icing  Turbulence  Mountain Waves  Volcanic Ashes






- Airport Elevation : 289 ft


LFYR - Romorantin Pruniers

CURRENT METAR :
  • 180430Z AUTO 06008KT 030V090 7000 OVC007 03/03 Q1036

EXPIRED METARs :
  • 180400Z AUTO 06006KT 5000 BR OVC005 03/03 Q1036
  • 180330Z AUTO 07008KT 4400 BR OVC003 03/03 Q1036
  • 180300Z AUTO 05003KT 030V090 3500 BR OVC003 01/01 Q1036
  • 180230Z AUTO 00000KT 0550 FZFG VV/// M01/M01 Q1036
  • 180200Z AUTO 00000KT 0350 FZFG VV/// M00/M00 Q1036

TAF TAF LFYR
Valid from the 17 at 15:00 until the 18 at 15:00 UTC


171400Z 1715/1815 VRB02KT 3000 BR OVC002
TEMPO 1715/1722 0800 FG VV///
BECMG 1722/1801 6000 NSW OVC005
BECMG 1805/1807 08010KT
BECMG 1810/1812 BKN014



MET'MAP, your aeronautical weather chart ! - Copyright ORBIFLY December 2007 - Disclaimer

ORBIFLY MET'MAP TEAM :

Programming & Development : Alexandra Zaïnal
Concept & original design : Baudouin d'Aumeries
Assistance for programming : Marc-Olivier Méhu
Technical & hardware support : Manuel Goepfert

Contact : metmap@orbifly.com




SOURCES & CREDITS :

   NOAA